Time;durP1;ratioP1;P1;durP2;ratioP2;P2;SDS_P1;SDS_P2;PMS_P1;PMS_P2;Temp;Humidity;BMP_temperature;BMP_pressure;BME280_temperature;BME280_humidity;BME280_pressure;Samples;Min_cycle;Max_cycle;Signal;HPM_P1;HPM_P2
2020/12/09 00:01:32;;;;;;;482.40;85.50;;;;;;;-0.42;100.00;99658.84;5051338;28;20184;-77
2020/12/09 00:04:00;;;;;;;491.90;84.47;;;;;;;-0.40;100.00;99659.41;5051426;28;20549;-76
2020/12/09 00:06:26;;;;;;;443.40;85.10;;;;;;;-0.36;100.00;99668.53;5050969;28;20473;-76
2020/12/09 00:08:51;;;;;;;468.97;86.87;;;;;;;-0.36;100.00;99668.53;5051144;28;20757;-76
2020/12/09 00:11:17;;;;;;;444.47;88.50;;;;;;;-0.36;100.00;99669.34;5051164;28;20631;-76
2020/12/09 00:13:43;;;;;;;475.13;85.83;;;;;;;-0.33;100.00;99674.19;5051185;28;20183;-76
2020/12/09 00:16:08;;;;;;;486.97;92.00;;;;;;;-0.32;100.00;99675.81;5051064;28;20189;-76
2020/12/09 00:18:34;;;;;;;440.23;90.17;;;;;;;-0.27;100.00;99679.59;5050968;28;20195;-76
2020/12/09 00:20:59;;;;;;;472.57;89.37;;;;;;;-0.25;100.00;99682.84;5050779;28;20175;-75
2020/12/09 00:23:24;;;;;;;474.20;96.67;;;;;;;-0.23;100.00;99683.38;5051172;28;20236;-76
2020/12/09 00:25:50;;;;;;;450.47;92.37;;;;;;;-0.22;100.00;99675.06;5050843;28;20226;-75
2020/12/09 00:28:15;;;;;;;424.47;87.83;;;;;;;-0.15;100.00;99683.69;5050752;28;20209;-76
2020/12/09 00:30:40;;;;;;;414.80;85.17;;;;;;;-0.15;100.00;99678.31;5050123;28;20634;-76
2020/12/09 00:33:06;;;;;;;410.23;85.77;;;;;;;-0.16;100.00;99690.13;5050885;28;20629;-76
2020/12/09 00:35:31;;;;;;;413.37;86.10;;;;;;;-0.17;100.00;99685.81;5050576;28;20181;-76
2020/12/09 00:37:57;;;;;;;405.53;85.17;;;;;;;-0.16;100.00;99702.75;5050701;28;20174;-76
2020/12/09 00:40:22;;;;;;;436.57;89.37;;;;;;;-0.19;100.00;99693.34;5050711;28;20225;-76
2020/12/09 00:42:47;;;;;;;416.13;86.37;;;;;;;-0.17;100.00;99679.66;5050996;28;20179;-76
2020/12/09 00:45:13;;;;;;;425.33;89.63;;;;;;;-0.19;100.00;99674.53;5050661;28;20290;-76
2020/12/09 00:47:41;;;;;;;400.60;89.47;;;;;;;-0.17;100.00;99672.41;5050775;28;20183;-75
2020/12/09 00:52:40;;;;;;;390.17;86.47;;;;;;;-0.08;100.00;99678.09;5051066;28;20395;-76
2020/12/09 00:55:06;;;;;;;413.87;96.10;;;;;;;-0.08;100.00;99680.78;5050482;28;20421;-77
2020/12/09 00:57:31;;;;;;;414.33;93.27;;;;;;;-0.05;100.00;99683.75;5050502;28;20926;-76
2020/12/09 00:59:56;;;;;;;416.60;94.20;;;;;;;-0.03;100.00;99675.44;5050494;28;20406;-76
2020/12/09 01:02:22;;;;;;;420.40;93.83;;;;;;;-0.05;100.00;99677.56;5050825;28;20224;-76
2020/12/09 01:04:49;;;;;;;399.30;88.40;;;;;;;0.03;100.00;99682.47;5050712;28;20203;-76
2020/12/09 01:07:19;;;;;;;433.27;99.53;;;;;;;0.02;100.00;99678.16;5050444;28;20175;-76
2020/12/09 01:09:45;;;;;;;443.57;99.40;;;;;;;0.02;100.00;99678.16;5050854;28;20612;-76
2020/12/09 01:12:11;;;;;;;455.33;102.27;;;;;;;0.04;100.00;99691.31;5050506;28;20428;-76
2020/12/09 01:14:37;;;;;;;441.73;106.67;;;;;;;0.07;100.00;99688.91;5050562;28;20783;-76
2020/12/09 01:17:02;;;;;;;454.90;101.53;;;;;;;0.10;100.00;99699.13;5050328;28;20191;-76
2020/12/09 01:19:28;;;;;;;427.27;102.17;;;;;;;0.08;100.00;99701.28;5050489;28;20554;-76
2020/12/09 01:21:53;;;;;;;441.43;105.60;;;;;;;0.07;100.00;99686.22;5050404;28;20179;-76
2020/12/09 01:24:19;;;;;;;429.77;100.33;;;;;;;0.10;100.00;99695.63;5050345;28;20183;-76
2020/12/09 01:26:46;;;;;;;432.97;99.73;;;;;;;0.14;100.00;99696.72;5050490;28;20328;-76
2020/12/09 01:29:11;;;;;;;422.50;97.93;;;;;;;0.15;100.00;99698.38;5050355;28;20175;-75
2020/12/09 01:31:37;;;;;;;440.60;97.73;;;;;;;0.16;100.00;99702.66;5050149;28;20433;-75
2020/12/09 01:34:02;;;;;;;439.40;98.20;;;;;;;0.17;100.00;99694.34;5032492;28;20581;-76
2020/12/09 01:36:27;;;;;;;452.73;103.63;;;;;;;0.17;100.00;99702.41;5050304;28;20180;-76
2020/12/09 01:38:53;;;;;;;442.87;104.60;;;;;;;0.18;100.00;99701.34;5050631;28;20268;-75
2020/12/09 01:41:24;;;;;;;429.77;101.63;;;;;;;0.18;100.00;99709.41;5052183;28;20642;-75
2020/12/09 01:43:51;;;;;;;426.83;99.20;;;;;;;0.22;100.00;99709.66;5054182;28;20655;-76
2020/12/09 01:46:29;;;;;;;431.07;103.20;;;;;;;0.20;100.00;99703.75;5053605;28;20469;-75
2020/12/09 01:48:55;;;;;;;435.60;103.13;;;;;;;0.22;100.00;99698.94;5054470;28;20417;-75
2020/12/09 01:51:23;;;;;;;426.83;93.67;;;;;;;0.22;100.00;99693.56;5054050;28;20409;-75
2020/12/09 01:53:51;;;;;;;428.27;97.07;;;;;;;0.27;100.00;99701.63;5053741;28;20421;-76
2020/12/09 01:56:16;;;;;;;417.07;95.43;;;;;;;0.27;100.00;99693.56;5053679;28;20893;-76
2020/12/09 01:58:41;;;;;;;426.53;102.27;;;;;;;0.27;100.00;99696.25;5053583;28;20418;-75
2020/12/09 02:01:07;;;;;;;423.13;94.17;;;;;;;0.29;100.00;99700.31;5053346;28;20183;-75
2020/12/09 02:03:32;;;;;;;397.63;92.63;;;;;;;0.30;100.00;99701.13;5053899;28;20168;-76
2020/12/09 02:05:57;;;;;;;391.23;94.03;;;;;;;0.29;100.00;99691.47;5035514;28;20681;-76
2020/12/09 02:08:23;;;;;;;392.57;95.50;;;;;;;0.32;100.00;99700.88;5053420;28;20694;-76
2020/12/09 02:10:59;;;;;;;398.00;97.93;;;;;;;0.33;100.00;99692.53;5053307;28;20183;-76
2020/12/09 02:13:25;;;;;;;373.07;91.50;;;;;;;0.34;100.00;99690.66;5053276;28;20224;-76
2020/12/09 02:15:51;;;;;;;383.17;94.67;;;;;;;0.34;100.00;99688.78;5053228;28;20425;-75
2020/12/09 02:18:17;;;;;;;377.57;92.73;;;;;;;0.36;100.00;99700.06;5053023;28;20425;-77
2020/12/09 02:20:42;;;;;;;363.73;89.87;;;;;;;0.37;100.00;99685.56;5053317;28;20418;-76
2020/12/09 02:23:08;;;;;;;355.90;86.73;;;;;;;0.40;100.00;99690.41;5053073;28;20317;-76
2020/12/09 02:25:33;;;;;;;379.63;90.83;;;;;;;0.43;100.00;99686.38;5053098;28;20248;-76
2020/12/09 02:27:58;;;;;;;361.43;92.20;;;;;;;0.45;100.00;99698.50;5053362;28;20631;-76
2020/12/09 02:30:24;;;;;;;359.10;86.70;;;;;;;0.46;100.00;99684.00;5053723;28;20172;-76
2020/12/09 02:32:49;;;;;;;354.17;89.03;;;;;;;0.49;100.00;99682.66;5053028;28;20535;-76
2020/12/09 02:35:14;;;;;;;356.00;89.80;;;;;;;0.49;100.00;99672.72;5053028;28;20635;-77
2020/12/09 02:37:40;;;;;;;372.60;89.80;;;;;;;0.50;100.00;99685.06;5052704;28;20175;-75
2020/12/09 02:40:05;;;;;;;358.87;90.10;;;;;;;0.52;100.00;99682.94;5052743;28;20179;-76
2020/12/09 02:42:30;;;;;;;370.07;91.93;;;;;;;0.53;100.00;99683.72;5052662;28;20185;-76
2020/12/09 02:44:56;;;;;;;371.87;87.23;;;;;;;0.56;100.00;99678.63;5052578;28;20214;-77
2020/12/09 02:47:21;;;;;;;355.30;85.20;;;;;;;0.56;100.00;99686.69;5052515;28;20183;-76
2020/12/09 02:49:46;;;;;;;364.43;87.27;;;;;;;0.57;100.00;99693.69;5052640;28;20219;-77
2020/12/09 02:52:12;;;;;;;344.17;85.93;;;;;;;0.61;100.00;99704.72;5051758;28;20182;-76
2020/12/09 02:54:37;;;;;;;345.03;87.27;;;;;;;0.61;100.00;99695.88;5052824;28;20179;-76
2020/12/09 02:57:02;;;;;;;341.33;83.97;;;;;;;0.63;100.00;99699.09;5052386;28;20175;-76
2020/12/09 02:59:28;;;;;;;329.93;83.60;;;;;;;0.64;100.00;99692.66;5053008;28;20179;-76
2020/12/09 03:01:53;;;;;;;326.20;85.70;;;;;;;0.65;100.00;99705.81;5055024;28;20179;-76
2020/12/09 03:04:19;;;;;;;320.53;81.67;;;;;;;0.68;100.00;99707.16;5053700;28;20182;-76
2020/12/09 03:06:44;;;;;;;314.80;82.50;;;;;;;0.67;100.00;99710.94;5052233;28;20298;-76
2020/12/09 03:09:09;;;;;;;339.90;82.50;;;;;;;0.67;100.00;99722.47;5052260;28;20175;-75
2020/12/09 03:11:35;;;;;;;335.73;84.93;;;;;;;0.69;100.00;99720.34;5052239;28;20528;-76
2020/12/09 03:14:00;;;;;;;323.07;81.67;;;;;;;0.70;100.00;99723.81;5052270;28;20623;-76
2020/12/09 03:16:26;;;;;;;327.80;82.23;;;;;;;0.75;100.00;99723.88;5052517;28;20185;-76
2020/12/09 03:18:52;;;;;;;330.17;83.70;;;;;;;0.74;100.00;99720.38;5052642;28;20232;-75
2020/12/09 03:21:17;;;;;;;338.77;82.53;;;;;;;0.78;100.00;99723.31;5052326;28;20258;-75
2020/12/09 03:23:42;;;;;;;307.30;79.10;;;;;;;0.83;100.00;99717.97;5052337;28;20277;-75
2020/12/09 03:26:08;;;;;;;292.53;77.53;;;;;;;0.86;100.00;99722.78;5052155;28;20203;-76
2020/12/09 03:28:35;;;;;;;235.10;73.20;;;;;;;1.04;100.00;99722.31;5034832;28;20179;-76
2020/12/09 03:31:02;;;;;;;205.10;69.17;;;;;;;1.15;100.00;99715.84;5051978;28;20233;-76
2020/12/09 03:33:27;;;;;;;191.87;64.50;;;;;;;1.06;100.00;99716.66;5051846;28;20440;-76
2020/12/09 03:35:53;;;;;;;198.90;66.77;;;;;;;0.97;100.00;99716.38;5051867;28;20810;-74
2020/12/09 03:38:18;;;;;;;212.57;68.23;;;;;;;0.93;100.00;99709.13;5051419;28;20187;-76
2020/12/09 03:40:44;;;;;;;219.97;68.43;;;;;;;0.86;100.00;99707.47;5051349;28;20172;-76
2020/12/09 03:43:09;;;;;;;212.00;68.07;;;;;;;0.90;100.00;99707.78;5051445;28;20187;-76
2020/12/09 03:45:35;;;;;;;218.63;66.50;;;;;;;0.95;100.00;99718.53;5051804;28;20259;-76
2020/12/09 03:48:00;;;;;;;192.77;64.23;;;;;;;1.10;100.00;99718.56;5051499;28;20179;-75
2020/12/09 03:50:26;;;;;;;185.83;62.43;;;;;;;1.18;100.00;99722.63;5051483;28;20175;-75
2020/12/09 03:52:51;;;;;;;190.03;63.20;;;;;;;1.07;99.91;99721.78;5033551;28;20172;-76
2020/12/09 03:55:16;;;;;;;192.77;64.87;;;;;;;0.98;99.96;99725.25;5051194;28;20229;-75
2020/12/09 03:57:42;;;;;;;220.10;67.97;;;;;;;0.96;100.00;99722.81;5051171;28;20194;-76
2020/12/09 04:00:07;;;;;;;215.53;65.70;;;;;;;0.93;99.98;99718.00;5051344;28;20173;-75
2020/12/09 04:02:33;;;;;;;204.97;63.77;;;;;;;1.00;99.93;99726.59;5051495;28;20176;-75
2020/12/09 04:04:58;;;;;;;194.53;63.70;;;;;;;1.06;100.00;99713.97;5051041;28;20709;-75
2020/12/09 04:07:23;;;;;;;200.57;67.57;;;;;;;0.99;99.90;99722.28;5051164;28;20654;-75
2020/12/09 04:09:48;;;;;;;204.87;63.90;;;;;;;1.06;99.87;99722.84;5033484;28;20186;-75
2020/12/09 04:12:14;;;;;;;171.47;60.43;;;;;;;1.28;99.85;99727.19;5050912;28;20196;-75
2020/12/09 04:14:39;;;;;;;163.07;63.20;;;;;;;1.38;99.67;99727.19;5051210;28;20167;-75
2020/12/09 04:17:04;;;;;;;145.00;58.70;;;;;;;1.35;99.39;99735.81;5051018;28;20183;-76
2020/12/09 04:19:30;;;;;;;155.47;59.53;;;;;;;1.26;99.32;99738.22;5051083;28;20533;-76
2020/12/09 04:21:55;;;;;;;169.77;61.37;;;;;;;1.19;99.02;99746.56;5050976;28;20174;-75
2020/12/09 04:24:21;;;;;;;190.67;63.73;;;;;;;1.13;98.96;99747.59;5051010;28;20172;-77
2020/12/09 04:26:46;;;;;;;218.20;72.20;;;;;;;0.97;99.47;99735.19;5050686;28;20284;-76
2020/12/09 04:29:12;;;;;;;225.00;66.93;;;;;;;0.94;99.22;99732.25;5051007;28;20179;-76
2020/12/09 04:31:37;;;;;;;230.60;69.47;;;;;;;0.95;99.57;99731.97;5033029;28;20171;-75
2020/12/09 04:34:03;;;;;;;233.53;68.03;;;;;;;0.99;99.28;99734.94;5032910;28;20539;-75
2020/12/09 04:36:29;;;;;;;225.47;70.90;;;;;;;1.00;99.62;99739.22;5050682;28;20638;-75
2020/12/09 04:38:54;;;;;;;249.50;69.20;;;;;;;1.02;99.14;99739.81;5050674;28;20420;-75
2020/12/09 04:41:20;;;;;;;230.50;69.10;;;;;;;1.04;99.16;99734.97;5050585;28;20175;-76
2020/12/09 04:43:45;;;;;;;231.67;68.93;;;;;;;1.04;99.53;99734.97;5050666;28;20179;-77
2020/12/09 04:46:11;;;;;;;217.03;69.00;;;;;;;1.04;99.21;99740.34;5032644;28;20226;-75
2020/12/09 04:48:55;;;;;;;240.23;72.03;;;;;;;0.98;99.46;99733.31;5050753;28;20198;-76
2020/12/09 04:51:55;;;;;;;252.57;71.00;;;;;;;0.96;99.56;99738.16;5050614;28;20649;-75
2020/12/09 04:54:39;;;;;;;240.47;70.47;;;;;;;0.92;99.49;99732.50;5050381;28;20461;-76
2020/12/09 04:57:41;;;;;;;264.47;74.93;;;;;;;0.94;99.78;99735.75;5032995;28;20855;-75
2020/12/09 05:00:13;;;;;;;269.57;72.73;;;;;;;0.95;99.46;99729.28;5019920;28;20924;-77
2020/12/09 05:02:48;;;;;;;265.73;73.93;;;;;;;0.96;99.49;99732.78;5050523;28;20426;-75
2020/12/09 05:05:19;;;;;;;269.80;76.23;;;;;;;0.97;99.52;99729.00;5050423;28;20456;-75
2020/12/09 05:07:49;;;;;;;261.00;74.87;;;;;;;0.95;99.60;99723.09;5050449;28;20763;-75
2020/12/09 05:10:23;;;;;;;271.57;73.97;;;;;;;0.97;99.55;99721.75;5050691;28;20467;-75
2020/12/09 05:12:53;;;;;;;288.23;79.77;;;;;;;0.98;99.60;99720.69;5050346;28;20528;-75
2020/12/09 05:15:23;;;;;;;287.17;79.70;;;;;;;1.02;99.60;99719.09;5050774;28;20418;-76
2020/12/09 05:17:54;;;;;;;285.73;79.13;;;;;;;1.04;99.40;99726.91;5036321;28;20986;-74
2020/12/09 05:20:27;;;;;;;238.87;72.30;;;;;;;1.25;99.54;99741.16;5054398;28;20512;-77
2020/12/09 05:22:55;;;;;;;215.50;72.33;;;;;;;1.33;99.60;99746.03;5054216;28;20631;-75
2020/12/09 05:25:22;;;;;;;193.50;71.67;;;;;;;1.38;99.72;99746.84;5054087;28;20511;-75
2020/12/09 05:27:47;;;;;;;199.50;72.63;;;;;;;1.25;98.91;99736.59;5054147;28;20409;-76
2020/12/09 05:30:12;;;;;;;204.33;71.17;;;;;;;1.24;99.03;99736.88;5054496;28;20417;-76
2020/12/09 05:32:53;;;;;;;199.90;67.80;;;;;;;1.22;99.12;99747.91;5054483;28;20175;-76
2020/12/09 05:35:19;;;;;;;227.03;72.10;;;;;;;1.08;98.94;99736.84;5054101;28;20171;-75
2020/12/09 05:37:44;;;;;;;236.37;74.97;;;;;;;1.04;99.03;99737.66;5053767;28;20505;-76
2020/12/09 05:40:09;;;;;;;252.30;75.17;;;;;;;1.10;99.26;99741.97;5069526;28;20179;-74
2020/12/09 05:42:35;;;;;;;204.83;70.20;;;;;;;1.33;99.22;99749.53;5053919;28;20175;-76
2020/12/09 05:45:00;;;;;;;205.73;70.50;;;;;;;1.31;99.08;99746.31;5053924;28;20240;-75
2020/12/09 05:47:25;;;;;;;211.00;69.93;;;;;;;1.24;99.15;99755.69;5035872;28;20176;-75
2020/12/09 05:49:51;;;;;;;181.40;68.17;;;;;;;1.41;99.07;99759.75;5054200;28;20575;-76
2020/12/09 05:52:21;;;;;;;176.27;66.50;;;;;;;1.59;98.83;99757.59;5053661;28;20178;-75
2020/12/09 05:54:47;;;;;;;180.53;67.07;;;;;;;1.51;98.55;99761.66;5053850;28;20222;-76
2020/12/09 05:57:15;;;;;;;188.13;68.03;;;;;;;1.43;98.43;99756.78;5053469;28;20422;-75
2020/12/09 05:59:43;;;;;;;188.03;69.03;;;;;;;1.39;98.41;99758.41;5053514;28;20979;-75
2020/12/09 06:02:20;;;;;;;195.57;66.67;;;;;;;1.33;98.07;99763.00;5053507;28;20422;-75
2020/12/09 06:04:57;;;;;;;189.83;68.50;;;;;;;1.46;98.40;99756.28;5053269;28;20436;-77
2020/12/09 06:07:27;;;;;;;188.37;67.50;;;;;;;1.53;98.27;99756.00;5053524;28;20501;-76
2020/12/09 06:10:05;;;;;;;196.73;70.90;;;;;;;1.37;98.11;99757.88;5053449;28;20994;-75
2020/12/09 06:12:51;;;;;;;194.23;67.17;;;;;;;1.54;98.27;99777.25;5053452;28;20418;-75
2020/12/09 06:15:18;;;;;;;174.73;65.43;;;;;;;1.55;98.00;99770.81;5053146;28;20417;-76
2020/12/09 06:17:43;;;;;;;186.57;67.40;;;;;;;1.38;98.09;99773.75;5053096;28;20429;-76
2020/12/09 06:20:09;;;;;;;218.30;72.63;;;;;;;1.28;98.18;99765.66;5053149;28;20410;-78
2020/12/09 06:22:35;;;;;;;225.03;74.90;;;;;;;1.24;98.22;99769.97;5053294;28;20175;-77
2020/12/09 06:25:05;;;;;;;234.60;77.73;;;;;;;1.27;98.49;99782.88;5053073;28;20274;-77
2020/12/09 06:27:33;;;;;;;229.07;73.67;;;;;;;1.31;98.44;99775.09;5051611;28;20187;-76
2020/12/09 06:29:58;;;;;;;226.83;76.23;;;;;;;1.31;98.42;99780.47;5053055;28;20471;-76
2020/12/09 06:32:24;;;;;;;232.27;79.63;;;;;;;1.28;98.41;99779.09;5053111;28;20414;-75
2020/12/09 06:35:07;;;;;;;234.07;78.47;;;;;;;1.27;98.30;99776.69;5053019;28;20482;-75
2020/12/09 06:37:33;;;;;;;231.67;76.83;;;;;;;1.27;98.50;99776.69;5052863;28;20237;-75
2020/12/09 06:40:13;;;;;;;250.00;76.50;;;;;;;1.26;98.94;99780.44;5052757;28;20897;-75
2020/12/09 06:42:39;;;;;;;233.47;76.83;;;;;;;1.27;98.58;99777.50;5052843;28;20250;-75
2020/12/09 06:45:07;;;;;;;239.07;79.70;;;;;;;1.28;98.24;99783.69;5052783;28;20887;-77
2020/12/09 06:47:32;;;;;;;244.67;78.17;;;;;;;1.27;98.55;99777.50;5052594;28;20519;-76
2020/12/09 06:50:01;;;;;;;238.90;78.47;;;;;;;1.31;98.76;99783.16;5052612;28;20421;-77
2020/12/09 06:52:28;;;;;;;235.63;80.53;;;;;;;1.34;98.91;99774.56;5052573;28;20294;-75
2020/12/09 06:54:54;;;;;;;237.73;78.27;;;;;;;1.36;98.62;99775.09;5052456;28;20417;-75
2020/12/09 06:57:22;;;;;;;229.33;75.53;;;;;;;1.35;98.58;99768.91;5052434;28;20414;-75
2020/12/09 06:59:49;;;;;;;209.47;71.27;;;;;;;1.46;98.52;99784.00;5052700;28;20217;-75
2020/12/09 07:02:29;;;;;;;195.63;70.57;;;;;;;1.72;98.59;99784.81;5052495;28;20501;-75
2020/12/09 07:04:54;;;;;;;171.40;65.70;;;;;;;1.88;98.42;99784.78;5052428;28;20936;-75
2020/12/09 07:07:37;;;;;;;151.73;64.47;;;;;;;2.05;98.32;99804.19;5052132;28;20422;-76
2020/12/09 07:10:24;;;;;;;135.03;59.97;;;;;;;2.19;97.93;99807.16;5052500;28;20693;-76
2020/12/09 07:12:57;;;;;;;129.30;60.23;;;;;;;2.18;97.30;99792.88;5052329;28;20177;-75
2020/12/09 07:15:23;;;;;;;140.03;59.97;;;;;;;1.97;97.33;99799.34;5052187;28;20425;-75
2020/12/09 07:17:48;;;;;;;149.53;61.77;;;;;;;1.74;96.99;99800.72;5051747;28;20430;-75
2020/12/09 07:20:14;;;;;;;142.33;64.40;;;;;;;1.76;97.27;99807.44;5052092;28;20171;-75
2020/12/09 07:22:39;;;;;;;146.37;63.27;;;;;;;1.91;96.93;99803.94;5052089;28;20483;-76
2020/12/09 07:25:05;;;;;;;132.57;58.60;;;;;;;2.17;96.78;99811.97;5052024;28;20715;-76
2020/12/09 07:27:31;;;;;;;135.27;59.47;;;;;;;2.27;96.21;99815.47;5052000;28;20532;-75
2020/12/09 07:30:02;;;;;;;125.57;58.97;;;;;;;2.25;96.21;99816.84;5051882;28;20221;-76
2020/12/09 07:32:27;;;;;;;127.73;59.03;;;;;;;2.28;96.04;99825.19;5051858;28;20159;-76
2020/12/09 07:34:55;;;;;;;124.33;58.73;;;;;;;2.42;95.87;99821.91;5051843;28;20410;-76
2020/12/09 07:37:23;;;;;;;116.07;55.67;;;;;;;2.51;95.63;99825.69;5051649;28;20171;-74
2020/12/09 07:39:51;;;;;;;113.43;55.20;;;;;;;2.49;94.82;99825.16;5051206;28;20175;-75
2020/12/09 07:42:17;;;;;;;114.10;54.27;;;;;;;2.51;94.87;99829.19;5051615;28;20421;-75
2020/12/09 07:44:44;;;;;;;112.57;54.67;;;;;;;2.57;94.70;99833.47;5051367;28;20167;-75
2020/12/09 07:47:11;;;;;;;119.00;54.90;;;;;;;2.55;94.41;99832.13;5051610;28;20418;-78
2020/12/09 07:49:48;;;;;;;115.23;52.17;;;;;;;2.58;93.95;99835.09;5051441;28;20183;-75
2020/12/09 07:52:21;;;;;;;114.53;53.57;;;;;;;2.63;93.72;99845.06;5051607;28;20518;-75
2020/12/09 07:54:47;;;;;;;111.27;53.83;;;;;;;2.65;93.77;99837.50;5051448;28;20232;-76
2020/12/09 07:57:12;;;;;;;129.43;60.10;;;;;;;2.32;93.63;99836.25;5051264;28;20175;-75
2020/12/09 07:59:37;;;;;;;137.50;62.33;;;;;;;1.92;94.51;99827.09;5051419;28;20197;-75
2020/12/09 08:02:23;;;;;;;161.23;65.97;;;;;;;1.66;95.44;99818.19;5066691;28;20179;-76
2020/12/09 08:05:08;;;;;;;168.97;67.60;;;;;;;1.61;95.81;99812.81;5051235;28;20175;-74
2020/12/09 08:07:34;;;;;;;174.80;70.17;;;;;;;1.56;96.30;99811.97;5051191;28;20421;-75
2020/12/09 08:10:13;;;;;;;179.73;74.03;;;;;;;1.51;96.65;99807.41;5051366;28;20844;-75
2020/12/09 08:12:42;;;;;;;187.17;73.23;;;;;;;1.55;96.70;99807.69;5051268;28;20265;-77
2020/12/09 08:15:08;;;;;;;197.43;74.63;;;;;;;1.48;96.85;99810.66;5050755;28;20428;-76
2020/12/09 08:17:34;;;;;;;203.17;75.27;;;;;;;1.49;96.80;99804.19;5050904;28;20823;-76
2020/12/09 08:20:08;;;;;;;202.60;79.47;;;;;;;1.54;97.33;99811.44;5050895;28;20425;-77
2020/12/09 08:22:51;;;;;;;219.13;81.83;;;;;;;1.53;97.46;99818.72;5051140;28;20693;-76
2020/12/09 08:25:17;;;;;;;197.17;76.37;;;;;;;1.57;97.28;99813.59;5051149;28;20822;-77
2020/12/09 08:27:44;;;;;;;197.70;77.77;;;;;;;1.53;97.38;99821.41;5050983;28;20508;-75
2020/12/09 08:30:16;;;;;;;202.60;76.77;;;;;;;1.54;97.27;99824.91;5050932;28;20262;-75
2020/12/09 08:32:53;;;;;;;187.30;74.07;;;;;;;1.52;97.28;99835.13;5050795;28;20459;-76
2020/12/09 08:35:18;;;;;;;201.30;73.70;;;;;;;1.55;97.29;99842.66;5050848;28;20429;-76
2020/12/09 08:37:44;;;;;;;193.87;74.63;;;;;;;1.57;97.27;99844.00;5050783;28;20418;-74
2020/12/09 08:40:09;;;;;;;186.47;73.17;;;;;;;1.61;97.16;99850.50;5050692;28;20175;-74
2020/12/09 08:42:35;;;;;;;181.23;71.37;;;;;;;1.69;97.10;99852.66;5050849;28;20181;-74
2020/12/09 08:45:00;;;;;;;175.20;71.73;;;;;;;1.72;97.02;99856.69;5050629;28;20167;-75
2020/12/09 08:47:25;;;;;;;174.20;69.43;;;;;;;1.73;97.04;99861.81;5050905;28;20183;-74
2020/12/09 08:49:51;;;;;;;170.63;71.43;;;;;;;1.65;96.81;99864.25;5050007;28;20176;-74
2020/12/09 08:52:16;;;;;;;182.10;71.73;;;;;;;1.61;96.87;99863.16;5050364;28;20182;-75
2020/12/09 08:54:41;;;;;;;181.73;70.10;;;;;;;1.73;96.93;99867.19;5050627;28;20182;-75
2020/12/09 08:57:06;;;;;;;184.47;73.77;;;;;;;1.68;96.73;99869.06;5050460;28;20257;-76
2020/12/09 08:59:32;;;;;;;177.37;73.60;;;;;;;1.69;96.82;99859.94;5050703;28;20221;-74
2020/12/09 09:01:57;;;;;;;188.70;75.00;;;;;;;1.63;96.97;99875.28;5052193;28;20244;-74
2020/12/09 09:04:30;;;;;;;184.73;74.20;;;;;;;1.71;97.01;99877.44;5052301;28;20178;-74
2020/12/09 09:06:55;;;;;;;186.50;71.63;;;;;;;1.82;96.70;99875.56;5050702;28;20207;-74
2020/12/09 09:09:20;;;;;;;167.03;70.83;;;;;;;1.88;96.61;99871.81;5050666;28;20759;-73
2020/12/09 09:11:46;;;;;;;162.73;69.40;;;;;;;1.89;96.82;99881.50;5050948;28;20175;-74
2020/12/09 09:14:11;;;;;;;162.80;68.00;;;;;;;2.00;96.37;99887.69;5032499;28;20176;-73
2020/12/09 09:16:37;;;;;;;168.83;71.07;;;;;;;2.02;96.25;99888.22;5050380;28;20302;-74
2020/12/09 09:19:03;;;;;;;158.97;68.13;;;;;;;2.09;96.18;99892.28;5050355;28;20175;-73
2020/12/09 09:21:34;;;;;;;148.40;67.57;;;;;;;2.03;95.61;99893.38;5050279;28;20186;-74
2020/12/09 09:23:59;;;;;;;178.73;71.07;;;;;;;1.86;95.66;99892.00;5050360;28;20183;-74
2020/12/09 09:26:27;;;;;;;163.87;67.80;;;;;;;2.02;95.71;99899.00;5050249;28;20825;-74
2020/12/09 09:28:52;;;;;;;150.83;65.43;;;;;;;2.33;95.51;99891.75;5050140;28;20569;-72
2020/12/09 09:31:17;;;;;;;132.60;60.90;;;;;;;2.51;95.19;99882.31;5050383;28;20167;-75
2020/12/09 09:33:43;;;;;;;144.07;62.90;;;;;;;2.64;94.98;99895.22;5050117;28;20186;-76
2020/12/09 09:36:08;;;;;;;135.37;62.43;;;;;;;2.66;94.38;99893.06;5050293;28;20178;-74
2020/12/09 09:38:33;;;;;;;141.13;63.93;;;;;;;2.54;94.23;99896.03;5050123;28;20171;-74
2020/12/09 09:40:59;;;;;;;138.10;63.40;;;;;;;2.67;93.95;99902.75;5050192;28;20273;-73
2020/12/09 09:43:24;;;;;;;135.73;61.27;;;;;;;2.75;93.59;99901.38;5050107;28;20187;-74
2020/12/09 09:45:50;;;;;;;138.30;61.90;;;;;;;2.90;93.18;99896.00;5049931;28;20674;-74
2020/12/09 09:48:15;;;;;;;137.97;61.47;;;;;;;2.91;92.97;99901.09;5049934;28;20217;-74
2020/12/09 09:50:41;;;;;;;130.33;60.13;;;;;;;2.98;92.63;99909.69;5050075;28;20171;-74
2020/12/09 09:53:06;;;;;;;133.50;63.23;;;;;;;2.86;92.02;99901.09;5049949;28;20207;-73
2020/12/09 09:55:31;;;;;;;132.73;61.13;;;;;;;2.85;92.22;99898.69;5050069;28;20180;-74
2020/12/09 09:57:57;;;;;;;132.90;59.80;;;;;;;3.04;91.88;99902.41;5049840;28;20183;-74
2020/12/09 10:00:22;;;;;;;134.83;58.50;;;;;;;3.12;91.64;99906.44;5049801;28;20186;-74
2020/12/09 10:02:47;;;;;;;135.70;59.23;;;;;;;3.13;91.38;99916.13;5052713;28;20182;-74
2020/12/09 10:05:13;;;;;;;138.83;60.00;;;;;;;3.07;91.33;99912.66;5053434;28;20199;-73
2020/12/09 10:07:38;;;;;;;145.37;64.77;;;;;;;2.92;91.47;99897.31;5053583;28;20179;-73
2020/12/09 10:10:04;;;;;;;137.00;62.10;;;;;;;3.04;91.39;99898.88;5053399;28;20178;-74
2020/12/09 10:12:31;;;;;;;151.80;61.80;;;;;;;2.83;91.76;99890.84;5053441;28;20171;-74
2020/12/09 10:14:56;;;;;;;144.07;61.00;;;;;;;2.85;91.99;99894.09;5053212;28;20190;-73
2020/12/09 10:17:22;;;;;;;144.13;59.07;;;;;;;3.04;91.60;99899.72;5053248;28;20183;-74
2020/12/09 10:19:47;;;;;;;129.70;53.73;;;;;;;2.98;91.02;99890.00;5053287;28;20172;-73
2020/12/09 10:22:12;;;;;;;138.13;59.00;;;;;;;2.97;91.00;99893.78;5053428;28;20245;-74
2020/12/09 10:24:39;;;;;;;135.97;57.20;;;;;;;3.07;91.25;99887.56;5053099;28;20707;-73
2020/12/09 10:27:04;;;;;;;134.03;57.90;;;;;;;3.09;91.38;99882.69;5052885;28;20207;-73
2020/12/09 10:29:29;;;;;;;134.00;54.57;;;;;;;3.04;90.69;99882.69;5052894;28;20278;-73
2020/12/09 10:31:55;;;;;;;128.63;54.33;;;;;;;2.91;90.48;99882.22;5053137;28;20262;-72
2020/12/09 10:34:20;;;;;;;124.87;52.57;;;;;;;2.85;91.08;99877.91;5053185;28;20178;-73
2020/12/09 10:36:51;;;;;;;121.27;50.47;;;;;;;2.73;91.56;99880.09;5052974;28;20185;-73
2020/12/09 10:39:23;;;;;;;119.57;51.53;;;;;;;2.67;91.46;99878.50;5053302;28;20172;-73
2020/12/09 10:41:50;;;;;;;114.40;50.20;;;;;;;2.59;91.96;99879.03;5052664;28;20472;-78
2020/12/09 10:44:16;;;;;;;113.80;45.47;;;;;;;2.59;92.04;99876.34;5052732;28;20171;-74
2020/12/09 10:46:41;;;;;;;112.93;45.90;;;;;;;2.49;92.16;99879.06;5052789;28;20475;-75
2020/12/09 10:49:10;;;;;;;118.57;49.83;;;;;;;2.46;92.47;99876.91;5052875;28;20265;-76
2020/12/09 10:51:43;;;;;;;133.47;51.50;;;;;;;2.48;92.64;99872.88;5052709;28;20180;-76
2020/12/09 10:54:08;;;;;;;125.83;51.00;;;;;;;2.53;92.74;99870.16;5052606;28;20406;-75
2020/12/09 10:56:34;;;;;;;121.13;50.67;;;;;;;2.58;92.44;99877.44;5052461;28;20421;-75
2020/12/09 10:58:59;;;;;;;85.70;34.17;;;;;;;2.54;92.62;99876.34;5052617;28;20176;-75
2020/12/09 11:01:25;;;;;;;130.73;47.67;;;;;;;2.27;92.31;99880.16;5052510;28;20520;-76
2020/12/09 11:03:54;;;;;;;119.77;44.03;;;;;;;2.10;92.81;99885.00;5052596;28;20179;-75
2020/12/09 11:06:27;;;;;;;116.47;41.07;;;;;;;2.07;93.46;99885.56;5051841;28;21048;-75
2020/12/09 11:08:52;;;;;;;129.30;44.40;;;;;;;1.99;94.14;99880.69;5051802;28;20414;-75
2020/12/09 11:11:18;;;;;;;142.67;48.37;;;;;;;1.97;93.91;99882.84;5051836;28;20417;-75
2020/12/09 11:13:43;;;;;;;144.40;47.70;;;;;;;1.98;94.15;99885.28;5051138;28;20175;-76
2020/12/09 11:16:16;;;;;;;149.20;51.20;;;;;;;1.97;94.22;99880.16;5052014;28;20253;-75
2020/12/09 11:18:42;;;;;;;125.83;44.13;;;;;;;1.98;94.54;99876.38;5052057;28;20179;-75